Current Conditions
Un Ciel Clair
Conditions



Rainfall
0.00 (mm) - 0.00 (in)
Pressure
1015.92 (hPa) - 30 (inHG)
Visibility

10.0 (km) - 6.2 (miles)
   Temperature
23  °C
73°F
8  °C
Dewpoint
38  %
 Humidity
   Wind Speed
14  km/h
8  kts
9  mph
4.0  m/s
   Wind Direction
 140°
South East
   Airport Data
ELLX
Location Luxembourg-Findel International 36 NNE from station km (22.37 mi)
Metar :ELLX 211520Z 14008KT 080V180 CAVOK 23/08 Q1016 NOSIG
Sat 21st September 17:20 pm
   Raw Metar Info
Raw METAR is the most common format in the world for the transmission of observational weather data. It is highly standardized through the International Civil Aviation Organization (ICAO), which allows it to be understood throughout most of the world.
   API Info
Data Provided by
https://www.checkwx.com/weather/ELLX
   © Info
CSS/SVG/PHP scripts were developed by weather34.com for use in the weather34 template © 2015-2019

Guide Info provided by Metar-Wikipedia